Time;durP1;ratioP1;P1;durP2;ratioP2;P2;SDS_P1;SDS_P2;PMS_P1;PMS_P2;Temp;Humidity;BMP_temperature;BMP_pressure;BME280_temperature;BME280_humidity;BME280_pressure;Samples;Min_cycle;Max_cycle;Signal;HPM_P1;HPM_P2
2023/03/22 00:01:20;;;;;;;8.52;2.50;;;;;;;8.43;100.00;100750.91;5087981;28;20478;-57
2023/03/22 00:03:47;;;;;;;11.20;2.88;;;;;;;8.53;100.00;100748.06;5115198;28;20055;-57
2023/03/22 00:06:12;;;;;;;9.07;2.35;;;;;;;8.55;100.00;100755.03;5105086;28;20028;-56
2023/03/22 00:08:39;;;;;;;8.93;2.30;;;;;;;8.18;100.00;100681.59;5115419;28;20024;-52
2023/03/22 00:11:05;;;;;;;7.32;2.25;;;;;;;8.71;100.00;100758.09;5115433;28;20031;-58
2023/03/22 00:13:31;;;;;;;10.02;2.35;;;;;;;8.70;100.00;100761.63;5115240;28;20133;-53
2023/03/22 00:15:58;;;;;;;8.38;2.10;;;;;;;8.28;100.00;100690.13;5089780;28;20051;-55
2023/03/22 00:18:24;;;;;;;6.90;2.10;;;;;;;8.67;100.00;100759.94;5074703;28;20037;-55
2023/03/22 00:20:55;;;;;;;12.50;2.88;;;;;;;8.63;100.00;100749.56;5073245;28;20040;-56
2023/03/22 00:23:21;;;;;;;9.82;2.67;;;;;;;8.48;100.00;100728.06;5074643;28;20060;-55
2023/03/22 00:25:47;;;;;;;8.55;2.47;;;;;;;8.49;100.00;100747.31;5073010;28;20032;-56
2023/03/22 00:28:13;;;;;;;14.25;2.50;;;;;;;8.45;100.00;100733.41;5074368;28;20070;-55
2023/03/22 00:30:39;;;;;;;8.10;2.80;;;;;;;8.41;100.00;100726.50;5074376;28;20041;-54
2023/03/22 00:33:05;;;;;;;14.48;3.72;;;;;;;8.36;100.00;100728.38;5074466;28;20085;-56
2023/03/22 00:35:30;;;;;;;14.65;3.33;;;;;;;8.28;100.00;100719.84;5073168;28;20117;-56
2023/03/22 00:37:56;;;;;;;13.93;4.82;;;;;;;8.04;100.00;100673.22;5074284;28;20047;-57
2023/03/22 00:40:21;;;;;;;14.43;3.60;;;;;;;8.37;100.00;100714.38;5074270;28;20589;-57
2023/03/22 00:42:47;;;;;;;9.35;3.20;;;;;;;8.40;100.00;100716.06;5073981;28;20029;-56
2023/03/22 00:45:12;;;;;;;17.73;3.80;;;;;;;8.45;100.00;100707.16;5072204;28;20407;-56
2023/03/22 00:47:38;;;;;;;10.75;3.28;;;;;;;8.09;100.00;100639.00;5075257;28;20033;-55
2023/03/22 00:50:05;;;;;;;11.25;3.28;;;;;;;8.11;100.00;100634.59;5074022;28;20036;-56
2023/03/22 00:52:30;;;;;;;11.45;3.17;;;;;;;8.07;100.00;100628.56;5072710;28;20035;-55
2023/03/22 00:54:56;;;;;;;16.00;4.00;;;;;;;8.47;100.00;100689.63;5073757;28;20040;-54
2023/03/22 00:57:21;;;;;;;8.45;2.88;;;;;;;8.47;100.00;100691.38;5073520;28;20029;-55
2023/03/22 00:59:47;;;;;;;12.32;3.58;;;;;;;8.09;100.00;100611.03;5073490;28;20033;-56
2023/03/22 01:02:12;;;;;;;15.38;3.70;;;;;;;8.49;100.00;100682.56;5081172;28;20459;-55
2023/03/22 01:04:39;;;;;;;16.95;3.45;;;;;;;8.47;100.00;100675.63;5093864;28;20089;-57
2023/03/22 01:07:06;;;;;;;11.45;3.17;;;;;;;8.52;100.00;100678.16;5093894;28;20372;-55
2023/03/22 01:09:32;;;;;;;10.75;3.00;;;;;;;8.09;100.00;100611.03;5093706;28;20028;-56
2023/03/22 01:11:59;;;;;;;15.65;3.63;;;;;;;8.14;100.00;100609.19;5093650;28;20039;-56
2023/03/22 01:14:25;;;;;;;6.30;2.75;;;;;;;8.32;100.00;100640.19;5099738;28;20111;-56
2023/03/22 01:16:53;;;;;;;7.70;2.35;;;;;;;8.06;100.00;100582.28;5094732;28;20036;-56
2023/03/22 01:19:19;;;;;;;9.98;3.10;;;;;;;8.14;100.00;100577.72;5092327;28;20396;-55
2023/03/22 01:21:44;;;;;;;11.82;3.33;;;;;;;8.52;100.00;100644.03;5111847;28;20145;-54
2023/03/22 01:24:10;;;;;;;10.02;2.63;;;;;;;8.08;100.00;100570.03;5095572;28;20028;-57
2023/03/22 01:26:36;;;;;;;12.23;2.78;;;;;;;8.49;100.00;100632.72;5113825;28;20402;-56
2023/03/22 01:29:02;;;;;;;9.10;2.83;;;;;;;8.43;100.00;100622.38;5113958;28;20040;-55
2023/03/22 01:31:27;;;;;;;9.50;2.40;;;;;;;8.45;100.00;100627.59;5095620;28;20039;-56
2023/03/22 01:33:52;;;;;;;11.43;2.83;;;;;;;8.39;100.00;100619.91;5113827;28;20030;-56
2023/03/22 01:36:18;;;;;;;11.98;3.42;;;;;;;8.10;100.00;100573.44;5089705;28;20125;-56
2023/03/22 01:38:43;;;;;;;9.73;2.88;;;;;;;8.00;100.00;100537.06;5092925;28;20074;-56
2023/03/22 01:41:09;;;;;;;7.63;2.80;;;;;;;8.45;100.00;100619.75;5093529;28;20032;-56
2023/03/22 01:43:34;;;;;;;11.98;3.47;;;;;;;8.09;100.00;100545.50;5093285;28;20027;-57
2023/03/22 01:46:00;;;;;;;11.70;3.65;;;;;;;8.29;100.00;100573.88;5093014;28;20085;-55
2023/03/22 01:48:28;;;;;;;8.73;2.45;;;;;;;8.25;100.00;100545.97;5092910;28;20055;-56
2023/03/22 01:51:05;;;;;;;9.07;2.55;;;;;;;8.58;100.00;100602.75;5092992;28;20565;-55
2023/03/22 01:53:35;;;;;;;12.25;2.75;;;;;;;8.63;100.00;100593.00;5102962;28;20035;-57
2023/03/22 01:56:01;;;;;;;6.20;2.53;;;;;;;8.32;100.00;100530.03;5113086;28;20573;-55
2023/03/22 01:58:27;;;;;;;9.70;3.08;;;;;;;8.77;100.00;100598.72;5094866;28;20437;-56
2023/03/22 02:00:52;;;;;;;13.10;2.97;;;;;;;8.82;100.00;100586.31;5094534;28;20190;-57
2023/03/22 02:03:24;;;;;;;8.32;3.22;;;;;;;8.88;100.00;100580.00;5112887;28;20073;-55
2023/03/22 02:05:50;;;;;;;11.70;3.03;;;;;;;8.60;100.00;100516.13;5112757;28;20187;-56
2023/03/22 02:08:16;;;;;;;11.45;3.17;;;;;;;9.08;100.00;100585.53;5094804;28;20114;-55
2023/03/22 02:10:41;;;;;;;11.18;3.47;;;;;;;9.06;100.00;100579.47;5099637;28;20123;-57
2023/03/22 02:13:23;;;;;;;9.25;3.75;;;;;;;9.09;100.00;100583.75;5092596;28;20024;-57
2023/03/22 02:16:10;;;;;;;8.98;3.45;;;;;;;9.14;100.00;100577.47;5074086;28;20091;-57
2023/03/22 02:18:45;;;;;;;5.60;3.58;;;;;;;9.20;100.00;100558.03;5092161;28;20032;-56
2023/03/22 02:21:53;;;;;;;8.73;3.88;;;;;;;9.15;100.00;100550.31;5074500;28;20451;-57
2023/03/22 02:24:55;;;;;;;8.85;3.67;;;;;;;9.20;100.00;100544.91;5092254;28;20039;-56
2023/03/22 02:27:46;;;;;;;9.48;4.10;;;;;;;9.16;100.00;100551.19;5092729;28;20024;-56
2023/03/22 02:30:42;;;;;;;12.43;4.20;;;;;;;9.09;100.00;100553.13;5107429;28;20111;-56
2023/03/22 02:33:38;;;;;;;9.63;4.90;;;;;;;9.05;100.00;100552.34;5112378;28;20031;-56
2023/03/22 02:36:06;;;;;;;11.00;4.57;;;;;;;9.02;100.00;100554.19;5112438;28;20097;-57
2023/03/22 02:38:56;;;;;;;13.70;4.75;;;;;;;9.02;100.00;100551.56;5112445;28;20554;-57
2023/03/22 02:41:37;;;;;;;9.77;4.30;;;;;;;8.98;100.00;100542.97;5111972;28;20027;-57
2023/03/22 02:44:12;;;;;;;8.30;4.30;;;;;;;8.95;100.00;100539.56;5112677;28;20039;-57
2023/03/22 02:46:44;;;;;;;10.18;5.30;;;;;;;8.90;100.00;100525.72;5076875;28;20047;-56
2023/03/22 02:49:23;;;;;;;10.45;4.63;;;;;;;8.55;100.00;100465.56;5073709;28;20036;-58
2023/03/22 02:51:59;;;;;;;13.00;6.03;;;;;;;8.52;100.00;100474.41;5091833;28;20387;-57
2023/03/22 02:54:44;;;;;;;11.73;5.28;;;;;;;8.81;100.00;100531.25;5092074;28;20032;-58
2023/03/22 02:57:27;;;;;;;11.15;5.43;;;;;;;8.89;100.00;100524.00;5092038;28;20382;-58
2023/03/22 02:59:53;;;;;;;10.73;5.00;;;;;;;8.94;100.00;100519.47;5091351;28;20024;-56
2023/03/22 03:02:20;;;;;;;12.52;5.80;;;;;;;8.83;100.00;100509.31;5085830;28;20410;-56
2023/03/22 03:04:47;;;;;;;16.05;5.82;;;;;;;8.72;100.00;100487.78;5094185;28;20512;-57
2023/03/22 03:07:15;;;;;;;10.00;5.68;;;;;;;8.41;100.00;100437.13;5093572;28;20035;-57
2023/03/22 03:09:42;;;;;;;10.70;5.90;;;;;;;8.61;100.00;100447.03;5093750;28;20035;-54
2023/03/22 03:12:24;;;;;;;12.45;5.68;;;;;;;8.98;100.00;100503.59;5094115;28;20081;-56
2023/03/22 03:14:49;;;;;;;11.35;5.50;;;;;;;8.96;100.00;100497.50;5111890;28;20058;-57
2023/03/22 03:17:15;;;;;;;15.32;6.07;;;;;;;9.09;100.00;100502.38;5110914;28;20581;-56
2023/03/22 03:19:48;;;;;;;14.15;6.15;;;;;;;9.13;100.00;100499.63;5095997;28;20032;-56
2023/03/22 03:22:39;;;;;;;10.63;5.88;;;;;;;9.25;100.00;100503.63;5091517;28;20028;-55
2023/03/22 03:25:19;;;;;;;7.97;5.45;;;;;;;9.30;100.00;100505.19;5073168;28;20063;-55
2023/03/22 03:28:14;;;;;;;13.95;5.82;;;;;;;9.36;100.00;100502.38;5091846;28;20060;-57
2023/03/22 03:31:05;;;;;;;14.35;5.85;;;;;;;9.23;100.00;100471.28;5049191;28;20478;-56
2023/03/22 03:33:33;;;;;;;11.10;6.13;;;;;;;9.33;100.00;100491.97;5056597;28;20111;-57
2023/03/22 03:36:01;;;;;;;9.32;5.35;;;;;;;9.28;100.00;100487.75;5095940;28;20367;-57
2023/03/22 03:38:33;;;;;;;13.60;6.05;;;;;;;9.29;100.00;100495.56;5116233;28;20390;-57
2023/03/22 03:41:28;;;;;;;15.95;6.75;;;;;;;9.27;100.00;100497.41;5097593;28;20027;-55
2023/03/22 03:43:55;;;;;;;12.73;6.38;;;;;;;9.24;100.00;100501.88;5075972;28;20494;-57
2023/03/22 03:46:20;;;;;;;12.48;7.10;;;;;;;9.26;100.00;100492.19;5097764;28;20111;-56
2023/03/22 03:48:47;;;;;;;14.65;7.78;;;;;;;9.12;100.00;100476.88;5115866;28;20496;-57
2023/03/22 03:51:13;;;;;;;11.13;6.70;;;;;;;8.83;100.00;100430.56;5097554;28;20122;-57
2023/03/22 03:53:38;;;;;;;9.93;6.55;;;;;;;8.92;100.00;100440.78;5078303;28;20395;-58
2023/03/22 03:56:04;;;;;;;17.98;8.63;;;;;;;9.32;100.00;100492.84;5112247;28;20096;-57
2023/03/22 03:58:30;;;;;;;11.25;6.50;;;;;;;9.21;100.00;100478.34;5115544;28;20099;-56
2023/03/22 04:00:55;;;;;;;13.45;7.03;;;;;;;9.29;100.00;100490.31;5115530;28;20414;-56
2023/03/22 04:03:21;;;;;;;11.05;6.68;;;;;;;9.34;100.00;100487.56;5115513;28;20045;-56
2023/03/22 04:05:46;;;;;;;18.00;8.02;;;;;;;8.94;100.00;100417.09;5115274;28;20410;-57
2023/03/22 04:08:11;;;;;;;13.70;8.23;;;;;;;8.90;100.00;100423.38;5115353;28;20478;-57
2023/03/22 04:10:37;;;;;;;15.80;8.13;;;;;;;8.91;100.00;100422.44;5110294;28;20538;-56
2023/03/22 04:13:02;;;;;;;12.75;7.35;;;;;;;9.26;100.00;100473.81;5094992;28;20494;-57
2023/03/22 04:15:28;;;;;;;17.52;8.77;;;;;;;9.21;100.00;100470.47;5075995;28;20542;-57
2023/03/22 04:17:53;;;;;;;13.65;7.75;;;;;;;9.20;100.00;100477.50;5094737;28;20067;-55
2023/03/22 04:20:19;;;;;;;12.63;7.97;;;;;;;8.86;100.00;100424.34;5094556;28;20040;-56
2023/03/22 04:22:47;;;;;;;12.45;7.95;;;;;;;9.24;100.00;100481.75;5076376;28;20035;-56
2023/03/22 04:25:13;;;;;;;11.35;7.72;;;;;;;8.90;100.00;100424.19;5076635;28;20024;-56
2023/03/22 04:27:40;;;;;;;13.75;7.90;;;;;;;9.05;100.00;100470.09;5094418;28;20036;-56
2023/03/22 04:30:10;;;;;;;11.80;8.13;;;;;;;9.15;100.00;100474.16;5092010;28;20031;-55
2023/03/22 04:32:36;;;;;;;14.63;7.93;;;;;;;8.72;100.00;100387.22;5096719;28;20035;-56
2023/03/22 04:35:02;;;;;;;18.05;7.97;;;;;;;9.09;100.00;100463.84;5114915;28;20036;-55
2023/03/22 04:37:32;;;;;;;13.00;7.68;;;;;;;8.74;100.00;100403.75;5096665;28;20106;-57
2023/03/22 04:39:58;;;;;;;12.23;7.00;;;;;;;9.09;100.00;100460.38;5097060;28;20032;-57
2023/03/22 04:42:24;;;;;;;13.68;7.00;;;;;;;8.40;100.00;100338.38;5114639;28;20055;-56
2023/03/22 04:44:49;;;;;;;13.60;7.30;;;;;;;9.05;100.00;100467.47;5094314;28;20046;-55
2023/03/22 04:47:15;;;;;;;15.18;7.50;;;;;;;9.08;100.00;100456.03;5095065;28;20023;-57
2023/03/22 04:49:41;;;;;;;15.82;6.72;;;;;;;9.11;100.00;100453.31;5114397;28;20031;-55
2023/03/22 04:52:06;;;;;;;12.90;6.80;;;;;;;9.11;100.00;100454.16;5114897;28;20028;-56
2023/03/22 04:54:32;;;;;;;15.90;6.80;;;;;;;9.20;100.00;100451.22;5114238;28;20039;-55
2023/03/22 04:56:57;;;;;;;11.60;6.15;;;;;;;9.16;100.00;100430.38;5114354;28;20054;-56
2023/03/22 04:59:22;;;;;;;9.60;5.93;;;;;;;8.98;100.00;100385.47;5096251;28;20165;-56
2023/03/22 05:01:49;;;;;;;13.25;5.78;;;;;;;9.37;100.00;100448.06;5091130;28;20394;-55
2023/03/22 05:04:15;;;;;;;12.05;5.55;;;;;;;9.13;100.00;100409.47;5093757;28;20043;-57
2023/03/22 05:06:41;;;;;;;13.43;5.15;;;;;;;8.87;100.00;100373.59;5093713;28;20032;-55
2023/03/22 05:09:08;;;;;;;10.07;5.65;;;;;;;9.09;100.00;100387.72;5093963;28;20415;-57
2023/03/22 05:11:34;;;;;;;8.85;4.28;;;;;;;9.10;100.00;100378.06;5093651;28;20031;-56
2023/03/22 05:13:59;;;;;;;11.05;4.45;;;;;;;9.44;100.00;100431.16;5094092;28;20545;-57
2023/03/22 05:16:24;;;;;;;10.35;4.78;;;;;;;9.14;100.00;100377.91;5093750;28;20123;-57
2023/03/22 05:18:53;;;;;;;10.00;4.43;;;;;;;9.50;100.00;100460.72;5093929;28;20039;-57
2023/03/22 05:21:20;;;;;;;11.30;4.45;;;;;;;9.18;100.00;100374.28;5094421;28;20028;-56
2023/03/22 05:23:47;;;;;;;7.65;3.55;;;;;;;9.48;100.00;100438.03;5093641;28;20040;-61
2023/03/22 05:26:15;;;;;;;10.50;3.72;;;;;;;9.53;100.00;100441.38;5093836;28;20043;-59
2023/03/22 05:28:42;;;;;;;11.27;4.00;;;;;;;9.05;100.00;100370.34;5093619;28;20355;-55
2023/03/22 05:31:09;;;;;;;9.05;4.07;;;;;;;9.47;100.00;100438.94;5093848;28;20474;-58
2023/03/22 05:33:35;;;;;;;10.60;3.42;;;;;;;9.46;100.00;100438.09;5093565;28;20063;-56
2023/03/22 05:36:00;;;;;;;9.05;3.50;;;;;;;9.44;100.00;100424.16;5097809;28;20493;-57
2023/03/22 05:38:26;;;;;;;8.90;3.40;;;;;;;9.13;100.00;100365.72;5113619;28;20041;-55
2023/03/22 05:40:52;;;;;;;7.75;2.90;;;;;;;9.16;100.00;100365.59;5095954;28;20039;-57
2023/03/22 05:43:18;;;;;;;11.27;3.83;;;;;;;9.47;100.00;100429.31;5095472;28;20504;-56
2023/03/22 05:45:44;;;;;;;9.88;3.28;;;;;;;9.42;100.00;100423.34;5113486;28;20039;-56
2023/03/22 05:48:10;;;;;;;8.00;2.97;;;;;;;9.24;100.00;100386.34;5113456;28;20035;-60
2023/03/22 05:50:35;;;;;;;6.95;2.55;;;;;;;9.55;100.00;100418.50;5095205;28;20031;-54
2023/03/22 05:53:02;;;;;;;11.57;2.63;;;;;;;9.55;100.00;100434.28;5108368;28;20075;-55
2023/03/22 05:55:29;;;;;;;7.15;2.50;;;;;;;9.18;100.00;100355.91;5113264;28;20398;-58
2023/03/22 05:57:55;;;;;;;8.10;2.75;;;;;;;9.54;100.00;100414.19;5113616;28;20032;-55
2023/03/22 06:00:22;;;;;;;9.98;2.95;;;;;;;9.65;100.00;100429.56;5091898;28;20035;-59
2023/03/22 06:02:51;;;;;;;7.45;2.50;;;;;;;9.70;100.00;100420.59;5087603;28;20036;-56
2023/03/22 06:05:17;;;;;;;7.07;2.20;;;;;;;9.74;100.00;100422.22;5093247;28;20525;-58
2023/03/22 06:07:43;;;;;;;8.60;2.30;;;;;;;9.75;100.00;100428.34;5092311;28;20393;-58
2023/03/22 06:10:11;;;;;;;5.95;2.22;;;;;;;9.58;100.00;100382.50;5101967;28;20111;-56
2023/03/22 06:12:36;;;;;;;9.73;2.95;;;;;;;9.67;100.00;100373.41;5074689;28;20024;-57
2023/03/22 06:15:02;;;;;;;10.50;2.42;;;;;;;9.91;100.00;100419.84;5092070;28;20070;-54
2023/03/22 06:17:27;;;;;;;6.47;2.40;;;;;;;9.61;100.00;100369.25;5074560;28;20118;-57
2023/03/22 06:19:53;;;;;;;6.82;2.03;;;;;;;10.01;100.00;100425.66;5105637;28;20062;-56
2023/03/22 06:22:19;;;;;;;6.13;2.22;;;;;;;10.02;100.00;100433.47;5112795;28;20084;-56
2023/03/22 06:24:44;;;;;;;11.57;2.83;;;;;;;10.06;100.00;100426.31;5092346;28;20031;-56
2023/03/22 06:27:10;;;;;;;9.13;2.50;;;;;;;10.05;100.00;100420.19;5111854;28;20028;-53
2023/03/22 06:29:35;;;;;;;11.20;3.38;;;;;;;9.58;100.00;100342.22;5112773;28;20494;-55
2023/03/22 06:32:01;;;;;;;10.18;2.30;;;;;;;10.04;100.00;100423.72;5112424;28;20036;-57
2023/03/22 06:34:26;;;;;;;11.85;2.50;;;;;;;9.94;100.00;100417.13;5112486;28;20134;-57
2023/03/22 06:36:52;;;;;;;10.48;3.22;;;;;;;9.74;100.00;100371.44;5094062;28;20031;-55
2023/03/22 06:39:19;;;;;;;8.82;2.53;;;;;;;9.97;100.00;100411.75;5111571;28;20020;-57
2023/03/22 06:41:45;;;;;;;6.95;2.20;;;;;;;10.04;100.00;100413.22;5078514;28;20471;-56
2023/03/22 06:44:10;;;;;;;8.75;2.80;;;;;;;10.06;100.00;100416.66;5093114;28;20031;-56
2023/03/22 06:46:35;;;;;;;8.25;2.53;;;;;;;9.71;100.00;100364.53;5099204;28;20475;-53
2023/03/22 06:49:01;;;;;;;6.05;2.50;;;;;;;10.09;100.00;100415.69;5067203;28;20048;-57
2023/03/22 06:51:26;;;;;;;11.77;3.80;;;;;;;10.07;100.00;100420.13;5097080;28;20043;-56
2023/03/22 06:53:51;;;;;;;7.40;3.28;;;;;;;10.17;100.00;100411.03;5093980;28;20391;-54
2023/03/22 06:56:17;;;;;;;13.45;3.38;;;;;;;10.29;100.00;100431.63;5091168;28;20052;-55
2023/03/22 06:58:42;;;;;;;7.68;2.70;;;;;;;10.35;100.00;100407.72;5097304;28;20147;-55
2023/03/22 07:01:07;;;;;;;18.23;2.92;;;;;;;10.16;100.00;100367.22;5103143;28;20039;-55
2023/03/22 07:03:33;;;;;;;5.85;2.13;;;;;;;10.43;100.00;100410.03;5092792;28;20046;-57
2023/03/22 07:06:06;;;;;;;12.68;3.17;;;;;;;10.51;100.00;100414.09;5105186;28;20040;-55
2023/03/22 07:08:32;;;;;;;10.98;3.05;;;;;;;10.54;100.00;100419.22;5100575;28;20035;-56
2023/03/22 07:10:58;;;;;;;9.38;2.95;;;;;;;10.55;100.00;100402.53;5109180;28;20131;-52
2023/03/22 07:13:23;;;;;;;8.63;2.13;;;;;;;10.39;100.00;100401.41;5102056;28;20444;-56
2023/03/22 07:15:48;;;;;;;7.32;3.22;;;;;;;10.21;100.00;100354.78;5078393;28;20085;-56
2023/03/22 07:18:14;;;;;;;11.50;2.63;;;;;;;10.45;100.00;100409.06;5110841;28;20047;-57
2023/03/22 07:20:40;;;;;;;6.55;2.03;;;;;;;10.28;100.00;100366.75;5108360;28;20070;-54
2023/03/22 07:23:07;;;;;;;9.80;3.22;;;;;;;10.61;100.00;100425.13;5100191;28;20024;-52
2023/03/22 07:25:33;;;;;;;8.93;2.47;;;;;;;10.26;100.00;100359.84;5112258;28;20036;-57
2023/03/22 07:27:59;;;;;;;9.32;2.50;;;;;;;10.62;100.00;100417.16;5082771;28;20036;-52
2023/03/22 07:30:24;;;;;;;9.10;2.42;;;;;;;10.22;100.00;100353.84;5091846;28;20047;-56
2023/03/22 07:32:50;;;;;;;11.60;3.15;;;;;;;10.61;100.00;100431.25;5104516;28;20036;-55
2023/03/22 07:35:17;;;;;;;7.68;2.83;;;;;;;10.56;100.00;100406.03;5111595;28;20390;-55
2023/03/22 07:37:43;;;;;;;12.60;3.13;;;;;;;10.60;100.00;100433.91;5111917;28;20027;-56
2023/03/22 07:40:09;;;;;;;11.98;2.70;;;;;;;10.40;100.00;100373.31;5098677;28;20070;-57
2023/03/22 07:42:34;;;;;;;14.15;2.83;;;;;;;10.67;100.00;100415.22;5108535;28;20054;-55
2023/03/22 07:44:59;;;;;;;12.77;2.53;;;;;;;10.35;100.00;100370.03;5089662;28;20130;-56
2023/03/22 07:47:25;;;;;;;8.57;2.75;;;;;;;10.57;100.00;100413.84;5096130;28;20036;-56
2023/03/22 07:49:51;;;;;;;7.22;2.83;;;;;;;10.64;100.00;100425.00;5061830;28;20028;-56
2023/03/22 07:52:16;;;;;;;9.25;3.25;;;;;;;10.37;100.00;100353.25;5094391;28;20438;-56
2023/03/22 07:54:42;;;;;;;11.40;2.88;;;;;;;10.44;100.00;100386.31;5107852;28;20120;-56
2023/03/22 07:57:07;;;;;;;12.02;3.58;;;;;;;10.57;100.00;100407.72;5111473;28;20402;-56
2023/03/22 07:59:32;;;;;;;6.00;2.72;;;;;;;10.71;100.00;100418.59;5096387;28;20372;-56
2023/03/22 08:01:58;;;;;;;10.98;3.15;;;;;;;10.68;100.00;100414.28;5077795;28;20109;-57
2023/03/22 08:04:24;;;;;;;9.52;2.78;;;;;;;10.31;100.00;100361.38;5078360;28;20109;-52
2023/03/22 08:06:50;;;;;;;9.18;2.47;;;;;;;10.31;100.00;100360.53;5107657;28;20024;-56
2023/03/22 08:09:16;;;;;;;5.85;2.53;;;;;;;10.58;100.00;100438.41;5095364;28;20028;-57
2023/03/22 08:11:41;;;;;;;9.43;3.20;;;;;;;10.45;100.00;100438.00;5104273;28;20478;-55
2023/03/22 08:14:07;;;;;;;9.80;3.45;;;;;;;10.33;100.00;100425.34;5062339;28;20056;-55
2023/03/22 08:16:33;;;;;;;9.65;2.83;;;;;;;9.86;100.00;100361.34;5090759;28;20128;-57
2023/03/22 08:18:58;;;;;;;7.68;2.63;;;;;;;10.11;100.00;100425.25;5090792;28;20119;-57
2023/03/22 08:21:24;;;;;;;7.45;2.42;;;;;;;9.95;100.00;100420.59;5110309;28;20035;-55
2023/03/22 08:23:50;;;;;;;10.48;2.90;;;;;;;9.87;100.00;100412.97;5110885;28;20028;-56
2023/03/22 08:26:16;;;;;;;11.80;3.25;;;;;;;9.78;100.00;100389.66;5106667;28;20031;-57
2023/03/22 08:28:41;;;;;;;8.88;2.80;;;;;;;9.49;100.00;100346.03;5114984;28;20032;-55
2023/03/22 08:31:15;;;;;;;9.05;2.70;;;;;;;9.72;100.00;100397.75;5105349;28;20441;-57
2023/03/22 08:33:41;;;;;;;10.82;2.55;;;;;;;9.48;100.00;100339.06;5113692;28;20146;-56
2023/03/22 08:36:09;;;;;;;8.10;2.80;;;;;;;9.43;100.00;100334.88;5090913;28;20040;-58
2023/03/22 08:38:34;;;;;;;9.35;3.38;;;;;;;9.44;100.00;100345.34;5095109;28;20035;-56
2023/03/22 08:40:59;;;;;;;16.08;3.33;;;;;;;9.35;100.00;100327.28;5082653;28;20035;-55
2023/03/22 08:43:25;;;;;;;10.93;2.92;;;;;;;9.79;100.00;100401.03;5104522;28;20043;-57
2023/03/22 08:45:50;;;;;;;7.13;2.75;;;;;;;9.78;100.00;100394.06;5102722;28;20039;-56
2023/03/22 08:48:15;;;;;;;9.45;3.13;;;;;;;9.76;100.00;100396.75;5101127;28;20039;-57
2023/03/22 08:50:41;;;;;;;10.43;2.92;;;;;;;9.45;100.00;100347.06;5075054;28;20032;-56
2023/03/22 08:53:06;;;;;;;11.25;3.55;;;;;;;9.80;100.00;100393.09;5096815;28;20067;-58
2023/03/22 08:55:34;;;;;;;10.50;3.40;;;;;;;9.45;100.00;100343.56;5087445;28;20079;-57
2023/03/22 08:58:00;;;;;;;11.07;3.47;;;;;;;9.40;100.00;100330.59;5093507;28;20039;-55
2023/03/22 09:00:26;;;;;;;14.20;3.35;;;;;;;9.68;100.00;100393.53;5100268;28;20030;-52
2023/03/22 09:02:51;;;;;;;11.10;3.63;;;;;;;9.78;100.00;100401.97;5093769;28;20031;-57
2023/03/22 09:05:17;;;;;;;11.40;3.45;;;;;;;9.76;100.00;100394.13;5095334;28;20040;-52
2023/03/22 09:07:42;;;;;;;12.82;3.70;;;;;;;9.77;100.00;100401.09;5100889;28;20456;-57
2023/03/22 09:10:09;;;;;;;13.88;3.22;;;;;;;9.43;100.00;100332.25;5101683;28;20051;-56
2023/03/22 09:12:35;;;;;;;10.63;3.60;;;;;;;9.70;100.00;100389.06;5093836;28;20046;-57
2023/03/22 09:15:00;;;;;;;10.93;3.30;;;;;;;9.67;100.00;100388.31;5078635;28;20440;-58
2023/03/22 09:17:26;;;;;;;16.77;3.70;;;;;;;9.76;100.00;100407.25;5075552;28;20085;-56
2023/03/22 09:19:51;;;;;;;10.30;3.30;;;;;;;9.80;100.00;100398.34;5095822;28;20074;-58
2023/03/22 09:22:16;;;;;;;11.60;3.42;;;;;;;9.44;100.00;100326.94;5097124;28;20169;-57
2023/03/22 09:24:42;;;;;;;10.25;3.20;;;;;;;9.73;100.00;100372.34;5089170;28;20170;-57
2023/03/22 09:27:07;;;;;;;10.63;2.95;;;;;;;9.86;100.00;100395.50;5086606;28;20066;-54
2023/03/22 09:29:32;;;;;;;17.05;4.13;;;;;;;9.86;100.00;100397.28;5106628;28;20032;-58
2023/03/22 09:31:58;;;;;;;12.07;3.88;;;;;;;9.84;100.00;100401.72;5111895;28;20502;-58
2023/03/22 09:34:23;;;;;;;9.38;4.00;;;;;;;9.49;100.00;100330.25;5103560;28;20043;-55
2023/03/22 09:36:51;;;;;;;16.88;5.00;;;;;;;9.76;100.00;100380.09;5091548;28;20036;-56
2023/03/22 09:39:16;;;;;;;10.43;3.70;;;;;;;9.72;100.00;100370.63;5091639;28;20114;-56
2023/03/22 09:41:51;;;;;;;12.63;4.03;;;;;;;9.42;100.00;100331.41;5073825;28;20253;-58
2023/03/22 09:44:23;;;;;;;10.95;3.58;;;;;;;9.79;100.00;100388.75;5091311;28;20036;-60
2023/03/22 09:46:51;;;;;;;9.18;3.20;;;;;;;9.80;100.00;100397.50;5074122;28;20039;-57
2023/03/22 09:49:20;;;;;;;11.65;3.85;;;;;;;9.49;100.00;100343.41;5091589;28;20039;-57
2023/03/22 09:51:50;;;;;;;12.60;3.40;;;;;;;9.78;100.00;100389.66;5056811;28;20039;-57
2023/03/22 09:54:24;;;;;;;11.80;4.25;;;;;;;9.79;100.00;100422.06;5072749;28;20065;-58
2023/03/22 09:57:05;;;;;;;8.85;3.90;;;;;;;9.42;100.00;100330.56;5091651;28;20636;-58
2023/03/22 09:59:50;;;;;;;14.15;3.67;;;;;;;9.67;100.00;100378.66;5091872;28;20525;-57
2023/03/22 10:02:18;;;;;;;8.90;4.07;;;;;;;9.75;100.00;100402.91;5092299;28;20052;-58
2023/03/22 10:05:24;;;;;;;9.75;3.78;;;;;;;9.50;100.00;100334.63;5091402;28;20122;-57
2023/03/22 10:08:26;;;;;;;13.90;4.57;;;;;;;9.75;100.00;100396.81;5009185;28;20046;-55
2023/03/22 10:10:52;;;;;;;15.23;4.85;;;;;;;9.68;100.00;100396.16;4992312;28;20038;-57
2023/03/22 10:13:33;;;;;;;12.85;4.72;;;;;;;9.67;100.00;100404.09;5049418;28;20454;-54
2023/03/22 10:16:03;;;;;;;15.20;4.97;;;;;;;9.64;100.00;100389.28;5090200;28;20574;-56
2023/03/22 10:18:35;;;;;;;14.45;5.00;;;;;;;9.43;100.00;100337.50;5073635;28;20032;-58
2023/03/22 10:21:03;;;;;;;13.07;4.45;;;;;;;9.80;100.00;100384.34;5073603;28;20069;-59
2023/03/22 10:23:34;;;;;;;10.25;4.55;;;;;;;9.89;100.00;100386.66;5089871;28;20123;-60
2023/03/22 10:26:00;;;;;;;14.10;4.13;;;;;;;9.92;100.00;100374.25;5073220;28;20124;-57
2023/03/22 10:28:38;;;;;;;17.67;4.72;;;;;;;9.93;100.00;100365.44;5073137;28;20032;-59
2023/03/22 10:31:04;;;;;;;16.67;4.18;;;;;;;9.96;100.00;100362.69;5072537;28;20059;-59
2023/03/22 10:33:40;;;;;;;10.80;4.32;;;;;;;9.99;100.00;100332.78;5072401;28;20085;-59
2023/03/22 10:36:10;;;;;;;6.97;4.70;;;;;;;10.05;100.00;100357.09;5089459;28;20131;-58
2023/03/22 10:38:41;;;;;;;12.68;3.83;;;;;;;10.12;100.00;100353.31;5071978;28;20082;-58
2023/03/22 10:41:11;;;;;;;12.50;3.92;;;;;;;10.19;100.00;100364.47;5090188;28;20047;-58
2023/03/22 10:43:38;;;;;;;11.15;4.03;;;;;;;10.23;100.00;100366.09;5091029;28;20063;-59
2023/03/22 10:46:07;;;;;;;13.05;3.22;;;;;;;10.31;100.00;100350.84;5071598;28;20032;-53
2023/03/22 10:48:38;;;;;;;9.70;3.42;;;;;;;10.35;100.00;100368.25;5072729;28;20066;-54
2023/03/22 10:51:04;;;;;;;10.88;3.47;;;;;;;10.35;100.00;100368.25;5055676;28;20036;-53
2023/03/22 10:53:39;;;;;;;9.07;3.50;;;;;;;10.31;100.00;100340.34;5085310;28;20492;-61
2023/03/22 10:56:14;;;;;;;13.77;3.83;;;;;;;10.37;100.00;100352.38;5110248;28;20023;-49
2023/03/22 10:58:40;;;;;;;8.52;3.22;;;;;;;10.52;100.00;100339.50;5110772;28;20039;-55
2023/03/22 11:01:11;;;;;;;10.02;3.33;;;;;;;10.72;100.00;100344.81;5110740;28;20049;-55
2023/03/22 11:03:41;;;;;;;9.05;3.25;;;;;;;10.88;100.00;100354.72;5092427;28;20024;-58
2023/03/22 11:06:35;;;;;;;11.52;3.20;;;;;;;10.89;100.00;100382.75;5111409;28;20036;-50
2023/03/22 11:09:22;;;;;;;7.60;2.90;;;;;;;10.88;100.00;100375.78;5111292;28;20096;-53
2023/03/22 11:12:00;;;;;;;11.68;3.22;;;;;;;10.84;100.00;100384.72;5109707;28;20034;-60
2023/03/22 11:14:31;;;;;;;6.68;3.20;;;;;;;10.85;100.00;100384.66;5071351;28;20439;-56
2023/03/22 11:16:57;;;;;;;11.80;3.28;;;;;;;10.81;100.00;100390.09;5088334;28;20035;-57
2023/03/22 11:19:37;;;;;;;7.88;3.25;;;;;;;10.45;100.00;100339.81;5088691;28;20040;-55
2023/03/22 11:22:15;;;;;;;8.00;3.40;;;;;;;10.78;100.00;100403.38;5088720;28;20024;-51
2023/03/22 11:24:40;;;;;;;8.55;3.55;;;;;;;10.72;100.00;100407.13;5088451;28;20036;-56
2023/03/22 11:27:15;;;;;;;7.18;2.67;;;;;;;10.39;100.00;100356.66;5071739;28;20081;-52